Time;durP1;ratioP1;P1;durP2;ratioP2;P2;SDS_P1;SDS_P2;PMS_P1;PMS_P2;Temp;Humidity;BMP_temperature;BMP_pressure;BME280_temperature;BME280_humidity;BME280_pressure;Samples;Min_cycle;Max_cycle;Signal;HPM_P1;HPM_P2
2022/09/07 00:01:13;;;;;;;5.60;3.22;;;16.60;99.90;;;;;;5021959;28;20014;-74
2022/09/07 00:03:40;;;;;;;5.70;3.05;;;16.50;99.90;;;;;;5021600;28;20033;-73
2022/09/07 00:06:09;;;;;;;4.35;2.67;;;16.50;99.90;;;;;;5022122;28;20021;-73
2022/09/07 00:08:34;;;;;;;10.35;4.00;;;16.50;99.90;;;;;;5021735;28;20030;-72
2022/09/07 00:11:03;;;;;;;7.15;3.28;;;16.60;99.90;;;;;;5022014;28;20057;-72
2022/09/07 00:13:32;;;;;;;12.25;3.78;;;16.60;99.90;;;;;;5021241;28;20030;-72
2022/09/07 00:16:02;;;;;;;5.50;3.20;;;16.50;99.90;;;;;;5022229;28;20017;-71
2022/09/07 00:18:27;;;;;;;12.55;4.60;;;16.50;99.90;;;;;;5021855;28;20022;-71
2022/09/07 00:21:01;;;;;;;6.03;2.88;;;16.50;99.90;;;;;;5021347;28;20061;-72
2022/09/07 00:23:28;;;;;;;5.10;3.35;;;16.50;99.90;;;;;;5022184;28;20017;-72
2022/09/07 00:26:01;;;;;;;5.90;3.15;;;16.50;99.90;;;;;;5021147;28;20097;-70
2022/09/07 00:28:27;;;;;;;3.95;3.05;;;16.50;99.90;;;;;;5021502;28;20029;-71
2022/09/07 00:30:53;;;;;;;9.00;3.45;;;16.50;99.90;;;;;;5021234;28;20030;-71
2022/09/07 00:33:18;;;;;;;6.13;3.33;;;16.50;99.90;;;;;;5021553;28;20018;-71
2022/09/07 00:35:45;;;;;;;6.22;3.05;;;16.50;99.90;;;;;;5021574;28;20397;-72
2022/09/07 00:38:11;;;;;;;5.70;3.55;;;16.50;99.90;;;;;;5021799;28;20085;-71
2022/09/07 00:40:36;;;;;;;9.75;3.90;;;16.50;99.90;;;;;;5003040;28;20508;-72
2022/09/07 00:43:03;;;;;;;4.65;2.95;;;16.50;99.90;;;;;;5021871;28;20030;-72
2022/09/07 00:45:29;;;;;;;6.97;3.70;;;16.50;99.90;;;;;;5021081;28;20030;-72
2022/09/07 00:48:09;;;;;;;6.93;3.20;;;16.50;99.90;;;;;;5020471;28;20018;-73
2022/09/07 00:50:38;;;;;;;7.38;2.83;;;16.50;99.90;;;;;;5021317;28;20041;-72
2022/09/07 00:53:22;;;;;;;7.18;3.55;;;16.50;99.90;;;;;;5020660;28;20022;-73
2022/09/07 00:55:50;;;;;;;5.10;3.03;;;16.50;99.90;;;;;;5021300;28;20061;-72
2022/09/07 00:58:19;;;;;;;8.80;3.35;;;16.50;99.90;;;;;;5021044;28;20030;-72
2022/09/07 01:00:46;;;;;;;4.57;3.17;;;16.50;99.90;;;;;;5022490;28;20021;-72
2022/09/07 01:03:15;;;;;;;6.95;3.33;;;16.50;99.90;;;;;;5025325;28;20040;-73
2022/09/07 01:06:14;;;;;;;7.13;3.00;;;16.60;99.90;;;;;;5024932;28;20025;-74
2022/09/07 01:08:41;;;;;;;6.57;3.42;;;16.50;99.90;;;;;;5024276;28;20071;-74
2022/09/07 01:11:12;;;;;;;9.35;3.80;;;16.50;99.90;;;;;;5025292;28;20034;-73
2022/09/07 01:13:40;;;;;;;6.03;3.13;;;16.50;99.90;;;;;;5025739;28;20026;-73
2022/09/07 01:16:21;;;;;;;6.20;3.53;;;16.50;99.90;;;;;;5024069;28;20025;-72
2022/09/07 01:19:01;;;;;;;12.48;4.53;;;16.50;99.90;;;;;;5025254;28;20036;-73
2022/09/07 01:22:09;;;;;;;5.82;3.25;;;16.50;99.90;;;;;;5025173;28;20499;-73
2022/09/07 01:24:53;;;;;;;5.50;3.25;;;16.50;99.90;;;;;;5024376;28;20026;-72
2022/09/07 01:27:35;;;;;;;5.80;3.58;;;16.50;99.90;;;;;;5024499;28;20050;-72
2022/09/07 01:30:03;;;;;;;5.53;3.15;;;16.50;99.90;;;;;;5025430;28;20034;-72
2022/09/07 01:32:56;;;;;;;7.25;3.50;;;16.50;99.90;;;;;;5025306;28;20042;-72
2022/09/07 01:35:49;;;;;;;6.57;2.92;;;16.50;99.90;;;;;;5024714;28;20133;-71
2022/09/07 01:38:25;;;;;;;16.67;3.35;;;16.50;99.90;;;;;;5024943;28;20116;-71
2022/09/07 01:40:58;;;;;;;4.20;2.80;;;16.50;99.90;;;;;;5024550;28;20029;-72
2022/09/07 01:43:44;;;;;;;5.05;3.10;;;16.50;99.90;;;;;;5006635;28;20029;-72
2022/09/07 01:46:17;;;;;;;7.63;3.65;;;16.50;99.90;;;;;;5024673;28;20026;-72
2022/09/07 01:48:45;;;;;;;7.07;3.65;;;16.50;99.90;;;;;;5023297;28;20076;-71
2022/09/07 01:51:15;;;;;;;4.38;3.03;;;16.50;99.90;;;;;;5023766;28;20125;-73
2022/09/07 01:53:53;;;;;;;9.15;3.40;;;16.50;99.90;;;;;;5024597;28;20026;-71
2022/09/07 01:56:30;;;;;;;5.35;2.88;;;16.50;99.90;;;;;;5024353;28;20120;-71
2022/09/07 01:59:00;;;;;;;5.82;3.47;;;16.50;99.90;;;;;;5024211;28;20037;-71
2022/09/07 02:01:33;;;;;;;5.38;3.40;;;16.50;99.90;;;;;;5024513;28;20054;-72
2022/09/07 02:04:22;;;;;;;17.45;4.07;;;16.50;99.90;;;;;;5024428;28;20049;-71
2022/09/07 02:06:54;;;;;;;11.85;3.92;;;16.50;99.90;;;;;;5024174;28;20057;-71
2022/09/07 02:09:42;;;;;;;12.65;3.58;;;16.50;99.90;;;;;;5024161;28;20026;-72
2022/09/07 02:12:23;;;;;;;7.30;4.03;;;16.50;99.90;;;;;;5023510;28;20030;-72
2022/09/07 02:14:55;;;;;;;6.00;3.67;;;16.40;99.90;;;;;;5023005;28;20394;-71
2022/09/07 02:17:33;;;;;;;8.07;3.35;;;16.50;99.90;;;;;;5023593;28;20018;-72
2022/09/07 02:20:08;;;;;;;10.50;4.07;;;16.50;99.90;;;;;;5024249;28;20025;-72
2022/09/07 02:22:41;;;;;;;5.38;3.45;;;16.50;99.90;;;;;;5023988;28;20037;-73
2022/09/07 02:25:12;;;;;;;8.23;3.67;;;16.40;99.90;;;;;;5022996;28;20029;-73
2022/09/07 02:27:44;;;;;;;8.70;3.63;;;16.40;99.90;;;;;;5024095;28;20046;-70
2022/09/07 02:30:11;;;;;;;6.50;3.83;;;16.40;99.90;;;;;;5023480;28;20022;-72
2022/09/07 02:32:36;;;;;;;5.60;3.08;;;16.40;99.90;;;;;;5024091;28;20038;-73
2022/09/07 02:35:04;;;;;;;6.70;3.63;;;16.40;99.90;;;;;;5024359;28;20056;-71
2022/09/07 02:37:32;;;;;;;8.43;3.65;;;16.40;99.90;;;;;;5006117;28;20038;-72
2022/09/07 02:39:59;;;;;;;6.43;3.47;;;16.40;99.90;;;;;;5023755;28;20022;-72
2022/09/07 02:42:26;;;;;;;7.35;4.35;;;16.50;99.90;;;;;;5022681;28;20098;-73
2022/09/07 02:44:52;;;;;;;4.57;3.22;;;16.40;99.90;;;;;;5023461;28;20485;-71
2022/09/07 02:47:33;;;;;;;10.73;4.50;;;16.40;99.90;;;;;;5023473;28;20024;-71
2022/09/07 02:50:24;;;;;;;10.45;4.35;;;16.50;99.90;;;;;;5023447;28;20084;-74
2022/09/07 02:53:27;;;;;;;7.35;3.90;;;16.50;99.90;;;;;;5023033;28;20064;-72
2022/09/07 02:56:28;;;;;;;4.45;3.10;;;16.50;99.90;;;;;;5022473;28;20041;-71
2022/09/07 02:59:24;;;;;;;6.53;3.22;;;16.50;99.90;;;;;;5023170;28;20026;-72
2022/09/07 03:02:16;;;;;;;7.45;4.10;;;16.50;99.90;;;;;;5022839;28;20034;-72
2022/09/07 03:05:16;;;;;;;6.70;3.53;;;16.50;99.90;;;;;;5023323;28;20065;-70
2022/09/07 03:07:45;;;;;;;6.43;3.90;;;16.50;99.90;;;;;;5013401;28;20112;-71
2022/09/07 03:10:12;;;;;;;7.65;3.70;;;16.50;99.90;;;;;;5022901;28;20045;-71
2022/09/07 03:12:49;;;;;;;5.82;3.40;;;16.50;99.90;;;;;;5021400;28;20014;-74
2022/09/07 03:15:19;;;;;;;12.20;4.30;;;16.50;99.90;;;;;;5022736;28;20065;-73
2022/09/07 03:17:45;;;;;;;7.55;4.45;;;16.50;99.90;;;;;;5023219;28;20061;-73
2022/09/07 03:20:11;;;;;;;6.28;4.15;;;16.50;99.90;;;;;;5022803;28;20026;-73
2022/09/07 03:22:36;;;;;;;7.22;3.92;;;16.50;99.90;;;;;;5023341;28;20041;-72
2022/09/07 03:25:04;;;;;;;9.02;4.47;;;16.50;99.90;;;;;;5021833;28;20087;-73
2022/09/07 03:27:31;;;;;;;8.70;4.28;;;16.50;99.90;;;;;;5021875;28;20068;-73
2022/09/07 03:29:57;;;;;;;7.80;3.75;;;16.60;99.90;;;;;;5021977;28;20042;-71
2022/09/07 03:32:23;;;;;;;5.20;3.55;;;16.60;99.90;;;;;;5022101;28;20042;-73
2022/09/07 03:34:59;;;;;;;7.22;4.18;;;16.60;99.90;;;;;;5021896;28;20018;-72
2022/09/07 03:37:25;;;;;;;6.78;4.10;;;16.60;99.90;;;;;;5022880;28;20022;-72
2022/09/07 03:39:51;;;;;;;6.30;4.03;;;16.60;99.90;;;;;;5004882;28;20096;-72
2022/09/07 03:42:16;;;;;;;8.23;4.00;;;16.60;99.90;;;;;;5022657;28;20018;-73
2022/09/07 03:44:42;;;;;;;6.78;4.03;;;16.60;99.90;;;;;;5022575;28;20041;-73
2022/09/07 03:47:07;;;;;;;8.18;4.15;;;16.60;99.90;;;;;;5022316;28;20014;-72
2022/09/07 03:49:33;;;;;;;7.32;4.60;;;16.60;99.90;;;;;;5022830;28;20106;-73
2022/09/07 03:51:59;;;;;;;8.45;4.43;;;16.50;99.90;;;;;;5021798;28;20080;-73
2022/09/07 03:54:25;;;;;;;11.95;4.95;;;16.50;99.90;;;;;;5021719;28;20026;-72
2022/09/07 03:56:50;;;;;;;9.05;4.68;;;16.50;99.90;;;;;;5022312;28;20065;-73
2022/09/07 03:59:16;;;;;;;7.88;4.13;;;16.40;99.90;;;;;;5022383;28;20060;-72
2022/09/07 04:01:42;;;;;;;6.55;3.95;;;16.30;99.90;;;;;;5021757;28;20033;-73
2022/09/07 04:04:08;;;;;;;8.10;3.92;;;16.30;99.90;;;;;;5022552;28;20029;-74
2022/09/07 04:06:33;;;;;;;12.25;5.35;;;16.30;99.90;;;;;;5022386;28;20037;-73
2022/09/07 04:09:10;;;;;;;6.38;4.32;;;16.30;99.90;;;;;;5021475;28;20030;-74
2022/09/07 04:11:36;;;;;;;9.18;4.93;;;16.20;99.90;;;;;;5000522;28;20155;-74
2022/09/07 04:14:03;;;;;;;8.30;4.20;;;16.20;99.90;;;;;;5018487;28;20060;-72
2022/09/07 04:16:28;;;;;;;8.82;5.00;;;16.20;99.90;;;;;;5020680;28;20028;-72
2022/09/07 04:18:54;;;;;;;8.60;5.22;;;16.20;99.90;;;;;;5019519;28;20054;-72
2022/09/07 04:21:21;;;;;;;8.20;4.35;;;16.20;99.90;;;;;;5019552;28;20034;-73
2022/09/07 04:23:48;;;;;;;10.50;5.00;;;16.10;99.90;;;;;;5020825;28;20041;-72
2022/09/07 04:26:16;;;;;;;10.55;4.70;;;16.10;99.90;;;;;;5021456;28;20053;-72
2022/09/07 04:28:42;;;;;;;8.95;4.60;;;16.10;99.90;;;;;;5021408;28;20030;-74
2022/09/07 04:31:08;;;;;;;13.02;4.70;;;16.10;99.90;;;;;;5021260;28;20040;-74
2022/09/07 04:33:34;;;;;;;6.07;3.78;;;16.10;99.90;;;;;;5020486;28;20080;-72
2022/09/07 04:36:00;;;;;;;6.15;3.88;;;16.10;99.90;;;;;;5020534;28;20033;-72
2022/09/07 04:38:26;;;;;;;7.82;4.25;;;16.10;99.90;;;;;;5021068;28;20089;-72
2022/09/07 04:41:01;;;;;;;9.15;4.53;;;16.20;99.90;;;;;;5020094;28;20025;-70
2022/09/07 04:43:27;;;;;;;;;;;16.20;99.90;;;;;;5021177;28;20029;-70
2022/09/07 04:45:52;;;;;;;7.25;3.65;;;16.20;99.90;;;;;;5021583;28;19917;-70
2022/09/07 04:48:19;;;;;;;9.80;4.65;;;16.10;99.90;;;;;;5021041;28;20038;-71
2022/09/07 04:50:45;;;;;;;7.32;4.20;;;16.10;99.90;;;;;;5020808;28;20085;-70
2022/09/07 04:53:11;;;;;;;9.48;5.05;;;16.10;99.90;;;;;;5021763;28;20029;-72
2022/09/07 04:55:37;;;;;;;8.30;4.75;;;16.10;99.90;;;;;;5020897;28;20034;-71
2022/09/07 04:58:03;;;;;;;11.60;5.28;;;16.10;99.90;;;;;;5020845;28;20026;-71
2022/09/07 05:00:28;;;;;;;8.55;5.53;;;16.10;99.90;;;;;;5015225;28;20036;-72
2022/09/07 05:02:54;;;;;;;8.15;4.85;;;16.00;99.90;;;;;;5019634;28;20053;-70
2022/09/07 05:05:19;;;;;;;7.30;4.55;;;16.00;99.90;;;;;;5017797;28;20030;-71
2022/09/07 05:07:45;;;;;;;10.45;4.63;;;16.00;99.90;;;;;;5021225;28;20580;-70
2022/09/07 05:10:11;;;;;;;9.13;5.20;;;16.00;99.90;;;;;;5020236;28;20037;-72
2022/09/07 05:12:36;;;;;;;8.85;4.60;;;16.00;99.90;;;;;;5020452;28;20109;-71
2022/09/07 05:15:03;;;;;;;10.57;5.18;;;15.90;99.90;;;;;;5019823;28;20114;-72
2022/09/07 05:17:29;;;;;;;9.10;4.90;;;16.00;99.90;;;;;;5020482;28;20018;-70
2022/09/07 05:19:55;;;;;;;7.13;4.82;;;16.00;99.90;;;;;;5020336;28;20057;-70
2022/09/07 05:22:21;;;;;;;13.10;4.95;;;16.00;99.90;;;;;;5003648;28;20053;-71
2022/09/07 05:24:47;;;;;;;8.85;5.10;;;16.00;99.90;;;;;;5003556;28;20033;-71
2022/09/07 05:27:13;;;;;;;9.05;5.30;;;16.00;99.90;;;;;;5019559;28;20050;-73
2022/09/07 05:29:39;;;;;;;11.95;5.53;;;16.00;99.90;;;;;;5020913;28;20091;-73
2022/09/07 05:32:04;;;;;;;11.20;4.57;;;16.00;99.90;;;;;;5020506;28;20046;-72
2022/09/07 05:34:30;;;;;;;9.50;4.95;;;16.10;99.90;;;;;;5020637;28;20034;-74
2022/09/07 05:36:56;;;;;;;12.38;4.95;;;16.10;99.90;;;;;;5020736;28;20038;-72
2022/09/07 05:39:21;;;;;;;17.67;5.88;;;16.10;99.90;;;;;;5019592;28;20026;-72
2022/09/07 05:41:47;;;;;;;7.85;5.20;;;16.20;99.90;;;;;;5019288;28;20069;-73
2022/09/07 05:44:13;;;;;;;9.02;5.68;;;16.10;99.90;;;;;;5021222;28;20022;-72
2022/09/07 05:46:39;;;;;;;11.98;7.30;;;16.10;99.90;;;;;;5020723;28;20132;-72
2022/09/07 05:49:06;;;;;;;10.77;5.95;;;16.10;99.90;;;;;;5023922;28;20121;-74
2022/09/07 05:51:32;;;;;;;10.23;6.22;;;16.10;99.90;;;;;;5024982;28;20102;-73
2022/09/07 05:53:58;;;;;;;11.13;5.65;;;16.10;99.90;;;;;;5021614;28;20061;-73
2022/09/07 05:56:24;;;;;;;9.85;6.40;;;16.00;99.90;;;;;;5020982;28;20049;-73
2022/09/07 05:58:50;;;;;;;12.32;6.47;;;16.00;99.90;;;;;;5022726;28;20025;-73
2022/09/07 06:01:16;;;;;;;14.82;6.93;;;16.10;99.90;;;;;;5023928;28;20042;-73
2022/09/07 06:03:43;;;;;;;12.02;6.45;;;16.00;99.90;;;;;;5022829;28;20030;-73
2022/09/07 06:06:11;;;;;;;16.50;6.97;;;16.00;99.90;;;;;;5024263;28;20026;-73
2022/09/07 06:08:39;;;;;;;13.32;6.25;;;16.00;99.90;;;;;;5023684;28;20022;-73
2022/09/07 06:11:11;;;;;;;15.77;6.95;;;16.00;99.90;;;;;;5024001;28;20053;-74
2022/09/07 06:13:37;;;;;;;11.63;7.18;;;15.90;99.90;;;;;;5023883;28;20026;-73
2022/09/07 06:16:04;;;;;;;11.18;6.65;;;16.00;99.90;;;;;;5024235;28;20072;-73
2022/09/07 06:18:35;;;;;;;13.55;7.07;;;15.90;99.90;;;;;;5023213;28;20050;-73
2022/09/07 06:21:03;;;;;;;11.52;6.57;;;15.90;99.90;;;;;;5005551;28;20100;-74
2022/09/07 06:23:30;;;;;;;12.40;7.07;;;16.00;99.90;;;;;;5006632;28;20026;-74
2022/09/07 06:25:55;;;;;;;11.70;7.05;;;15.90;99.90;;;;;;5023851;28;20032;-72
2022/09/07 06:28:31;;;;;;;12.38;6.88;;;15.90;99.90;;;;;;5023263;28;20018;-73
2022/09/07 06:31:01;;;;;;;10.98;6.70;;;15.90;99.90;;;;;;5024167;28;20429;-74
2022/09/07 06:33:27;;;;;;;14.77;7.25;;;15.90;99.90;;;;;;5022029;28;20065;-74
2022/09/07 06:36:01;;;;;;;15.13;6.65;;;15.90;99.90;;;;;;5022568;28;20367;-74
2022/09/07 06:38:43;;;;;;;17.58;7.50;;;16.00;99.90;;;;;;5023494;28;20061;-74
2022/09/07 06:41:24;;;;;;;13.10;6.68;;;15.90;99.90;;;;;;5022885;28;20088;-73
2022/09/07 06:43:50;;;;;;;14.70;6.20;;;16.00;99.90;;;;;;5022979;28;20044;-73
2022/09/07 06:46:16;;;;;;;10.10;5.78;;;15.90;99.90;;;;;;5022975;28;20026;-73
2022/09/07 06:48:42;;;;;;;9.85;6.13;;;15.90;99.90;;;;;;5023790;28;20072;-73
2022/09/07 06:51:18;;;;;;;12.70;6.57;;;15.90;99.90;;;;;;5022237;28;20042;-74
2022/09/07 06:53:45;;;;;;;12.63;7.05;;;15.90;99.90;;;;;;5021979;28;20030;-73
2022/09/07 06:56:17;;;;;;;18.45;7.47;;;15.90;99.90;;;;;;5003497;28;20466;-73
2022/09/07 06:58:42;;;;;;;12.02;6.80;;;16.00;99.90;;;;;;5021181;28;20465;-74
2022/09/07 07:01:16;;;;;;;13.10;6.88;;;15.90;99.90;;;;;;5022258;28;20050;-74
2022/09/07 07:03:43;;;;;;;12.52;7.28;;;16.00;99.90;;;;;;5022279;28;20030;-74
2022/09/07 07:06:09;;;;;;;14.05;7.65;;;16.00;99.90;;;;;;5023318;28;20021;-74
2022/09/07 07:08:35;;;;;;;17.60;6.82;;;16.00;99.90;;;;;;5022820;28;20046;-75
2022/09/07 07:11:15;;;;;;;13.85;7.07;;;16.00;99.90;;;;;;5023351;28;20059;-73
2022/09/07 07:13:43;;;;;;;14.88;8.07;;;16.00;99.90;;;;;;5022123;28;20026;-73
2022/09/07 07:16:13;;;;;;;15.73;7.40;;;16.10;99.90;;;;;;5022510;28;20029;-73
2022/09/07 07:18:40;;;;;;;11.68;6.35;;;16.10;99.90;;;;;;5022577;28;20022;-73
2022/09/07 07:21:08;;;;;;;9.90;5.75;;;16.20;99.90;;;;;;5021726;28;20065;-74
2022/09/07 07:23:34;;;;;;;8.52;5.53;;;16.30;99.90;;;;;;5022939;28;20030;-74
2022/09/07 07:26:02;;;;;;;11.18;6.28;;;16.40;99.90;;;;;;5021515;28;20049;-73
2022/09/07 07:28:28;;;;;;;12.50;6.88;;;16.50;99.90;;;;;;5022206;28;20080;-74
2022/09/07 07:30:58;;;;;;;15.20;7.25;;;16.50;99.90;;;;;;5022083;28;20450;-72
2022/09/07 07:33:27;;;;;;;11.40;6.55;;;16.60;99.90;;;;;;5021126;28;20101;-73
2022/09/07 07:35:53;;;;;;;14.13;7.68;;;16.70;99.90;;;;;;5022425;28;20054;-72
2022/09/07 07:38:18;;;;;;;12.07;6.57;;;16.80;99.90;;;;;;5023131;28;20038;-72
2022/09/07 07:40:51;;;;;;;16.38;7.85;;;16.90;99.90;;;;;;5021928;28;20028;-71
2022/09/07 07:43:16;;;;;;;12.48;7.10;;;17.00;99.90;;;;;;5022678;28;20044;-71
2022/09/07 07:45:43;;;;;;;11.85;7.10;;;17.10;99.90;;;;;;5021216;28;20081;-73
2022/09/07 07:48:11;;;;;;;12.63;6.18;;;17.10;99.90;;;;;;5020927;28;20033;-72
2022/09/07 07:50:37;;;;;;;22.48;6.85;;;17.20;99.90;;;;;;5018695;28;20405;-71
2022/09/07 07:53:04;;;;;;;11.45;6.72;;;17.20;99.90;;;;;;5022487;28;20037;-72
2022/09/07 07:55:29;;;;;;;11.40;6.70;;;17.20;99.90;;;;;;5020376;28;20112;-72
2022/09/07 07:57:55;;;;;;;9.55;6.32;;;17.40;99.90;;;;;;5015521;28;20597;-71
2022/09/07 08:00:21;;;;;;;20.02;6.53;;;17.40;99.90;;;;;;5017971;28;20030;-72
2022/09/07 08:02:46;;;;;;;10.82;6.50;;;17.60;99.90;;;;;;5020248;28;20065;-71
2022/09/07 08:05:12;;;;;;;10.07;6.30;;;17.60;99.90;;;;;;5021234;28;20053;-72
2022/09/07 08:07:39;;;;;;;9.05;5.93;;;17.70;99.90;;;;;;5020119;28;20037;-73
2022/09/07 08:10:11;;;;;;;10.70;7.00;;;17.80;99.90;;;;;;5017083;28;20041;-72
2022/09/07 08:12:38;;;;;;;17.15;7.10;;;17.90;99.90;;;;;;5019386;28;20123;-72
2022/09/07 08:15:04;;;;;;;16.15;7.78;;;17.90;99.90;;;;;;5020339;28;20014;-72
2022/09/07 08:17:30;;;;;;;10.30;6.15;;;17.90;99.90;;;;;;5021053;28;20723;-71
2022/09/07 08:19:56;;;;;;;16.67;6.55;;;18.00;99.90;;;;;;5022265;28;20082;-72
2022/09/07 08:22:22;;;;;;;12.65;6.60;;;18.10;99.90;;;;;;5019637;28;20026;-72
2022/09/07 08:24:48;;;;;;;10.93;6.13;;;18.10;99.90;;;;;;5018582;28;20049;-72
2022/09/07 08:27:18;;;;;;;10.32;6.60;;;18.20;99.90;;;;;;5019652;28;20046;-73
2022/09/07 08:29:43;;;;;;;12.50;7.07;;;18.20;99.90;;;;;;5020207;28;20042;-73
2022/09/07 08:32:09;;;;;;;10.95;7.28;;;18.30;99.90;;;;;;5018652;28;20454;-75
2022/09/07 08:34:36;;;;;;;8.27;5.70;;;18.40;99.90;;;;;;5019591;28;20034;-74
2022/09/07 08:37:02;;;;;;;14.45;7.10;;;18.50;99.90;;;;;;5020953;28;20021;-74
2022/09/07 08:39:27;;;;;;;10.88;5.80;;;18.50;99.90;;;;;;5019467;28;20660;-73
2022/09/07 08:41:58;;;;;;;10.52;6.50;;;18.50;99.90;;;;;;5020431;28;20022;-73
2022/09/07 08:44:32;;;;;;;10.80;6.28;;;18.60;99.90;;;;;;5019959;28;20042;-72
2022/09/07 08:47:00;;;;;;;12.20;7.00;;;18.70;99.90;;;;;;5020227;28;20034;-72
2022/09/07 08:49:40;;;;;;;12.18;6.18;;;18.80;99.90;;;;;;5021097;28;20253;-73
2022/09/07 08:52:21;;;;;;;14.30;7.15;;;18.90;99.90;;;;;;5016315;28;20038;-74
2022/09/07 08:55:01;;;;;;;10.65;6.57;;;19.10;99.90;;;;;;5021126;28;20038;-72
2022/09/07 08:57:32;;;;;;;12.95;5.63;;;19.30;99.90;;;;;;5020894;28;20045;-73
2022/09/07 09:00:12;;;;;;;10.40;6.70;;;19.50;99.90;;;;;;5021492;28;20025;-72
2022/09/07 09:02:38;;;;;;;13.40;6.28;;;19.60;99.90;;;;;;5004272;28;20029;-73
2022/09/07 09:05:19;;;;;;;10.55;6.28;;;19.70;99.90;;;;;;5021598;28;20014;-74
2022/09/07 09:07:50;;;;;;;8.95;5.18;;;19.80;99.90;;;;;;5021276;28;20022;-73
2022/09/07 09:10:21;;;;;;;7.00;4.60;;;19.80;99.90;;;;;;5003909;28;20481;-73
2022/09/07 09:13:00;;;;;;;9.10;5.68;;;20.00;99.90;;;;;;5019294;28;20484;-74
2022/09/07 09:15:51;;;;;;;10.07;5.60;;;20.00;99.90;;;;;;5021170;28;20086;-75
2022/09/07 09:18:33;;;;;;;10.48;6.25;;;20.20;99.90;;;;;;5019389;28;20052;-73
2022/09/07 09:21:00;;;;;;;8.98;5.50;;;20.20;99.90;;;;;;5020957;28;20038;-73
2022/09/07 09:23:33;;;;;;;7.82;5.60;;;20.30;99.90;;;;;;5022984;28;20025;-73
2022/09/07 09:26:09;;;;;;;9.60;5.38;;;20.40;99.90;;;;;;5023861;28;20022;-72
2022/09/07 09:28:36;;;;;;;10.80;6.10;;;20.40;99.90;;;;;;5023583;28;20026;-74
2022/09/07 09:31:02;;;;;;;11.30;5.05;;;20.60;99.90;;;;;;5023038;28;20054;-73
2022/09/07 09:33:28;;;;;;;13.93;5.65;;;20.60;99.90;;;;;;5025273;28;20468;-73
2022/09/07 09:35:57;;;;;;;10.02;5.32;;;20.60;99.90;;;;;;5024623;28;20022;-74
2022/09/07 09:38:28;;;;;;;14.52;6.65;;;20.70;99.90;;;;;;5024525;28;20072;-75
2022/09/07 09:40:56;;;;;;;7.78;4.68;;;20.80;99.90;;;;;;5024722;28;20037;-73
2022/09/07 09:43:33;;;;;;;11.50;5.72;;;20.90;99.90;;;;;;5023473;28;20037;-73
2022/09/07 09:46:00;;;;;;;7.22;5.03;;;20.90;99.90;;;;;;5020516;28;20038;-74
2022/09/07 09:48:40;;;;;;;7.22;4.70;;;21.10;99.90;;;;;;5023901;28;20421;-75
2022/09/07 09:51:08;;;;;;;8.07;5.15;;;21.20;99.90;;;;;;5025035;28;20048;-72
2022/09/07 09:53:38;;;;;;;8.25;4.97;;;21.20;99.90;;;;;;5022862;28;20026;-75
2022/09/07 09:56:05;;;;;;;13.15;4.97;;;21.20;99.90;;;;;;5023299;28;20030;-73
2022/09/07 09:58:41;;;;;;;12.75;5.60;;;21.20;99.90;;;;;;5006308;28;20040;-74
2022/09/07 10:01:21;;;;;;;8.32;4.88;;;21.30;99.90;;;;;;5007116;28;20038;-74
2022/09/07 10:03:46;;;;;;;7.93;5.45;;;21.30;99.90;;;;;;5005655;28;20038;-75
2022/09/07 10:06:15;;;;;;;10.55;4.75;;;21.40;99.90;;;;;;5022389;28;20036;-74
2022/09/07 10:09:01;;;;;;;10.23;4.85;;;21.40;99.90;;;;;;5023641;28;20037;-74
2022/09/07 10:11:43;;;;;;;8.32;5.00;;;21.40;99.90;;;;;;5023843;28;20452;-75
2022/09/07 10:14:18;;;;;;;24.83;4.88;;;21.50;99.90;;;;;;5020552;28;20068;-72
2022/09/07 10:16:45;;;;;;;8.20;5.45;;;21.50;99.90;;;;;;5019742;28;20122;-73
2022/09/07 10:19:33;;;;;;;6.88;4.20;;;21.50;99.90;;;;;;5020524;28;20026;-74
2022/09/07 10:22:02;;;;;;;7.50;3.97;;;21.70;99.90;;;;;;5020924;28;20030;-70
2022/09/07 10:24:35;;;;;;;8.63;5.40;;;21.80;99.90;;;;;;5017818;28;20030;-75
2022/09/07 10:27:18;;;;;;;6.28;4.43;;;22.00;99.90;;;;;;5021890;28;20044;-73
2022/09/07 10:29:44;;;;;;;7.63;4.40;;;22.10;99.90;;;;;;5023477;28;20026;-72
2022/09/07 10:32:31;;;;;;;6.10;4.05;;;22.30;99.90;;;;;;5004734;28;20103;-73
2022/09/07 10:35:29;;;;;;;15.13;4.90;;;22.40;99.90;;;;;;5022045;28;20038;-77
2022/09/07 10:38:27;;;;;;;8.35;4.00;;;22.60;99.90;;;;;;5004281;28;20049;-76
2022/09/07 10:41:00;;;;;;;7.35;3.45;;;22.80;99.90;;;;;;5023531;28;20466;-76
2022/09/07 10:43:46;;;;;;;12.07;4.22;;;23.00;99.90;;;;;;5004069;28;20508;-73
2022/09/07 10:46:14;;;;;;;8.45;4.40;;;23.20;99.90;;;;;;5022735;28;20061;-74
2022/09/07 10:48:54;;;;;;;7.03;4.15;;;23.30;99.90;;;;;;5005463;28;20041;-73
2022/09/07 10:51:38;;;;;;;5.05;3.50;;;23.20;99.90;;;;;;5022660;28;20044;-75
2022/09/07 10:54:26;;;;;;;6.90;3.85;;;23.10;99.90;;;;;;5022781;28;20030;-75
2022/09/07 10:57:26;;;;;;;5.68;4.00;;;23.00;99.90;;;;;;5004720;28;20038;-77
2022/09/07 11:00:06;;;;;;;7.20;4.15;;;23.00;99.90;;;;;;5004730;28;20030;-73
2022/09/07 11:02:53;;;;;;;8.60;4.25;;;22.90;99.90;;;;;;5023092;28;20029;-78
2022/09/07 11:05:31;;;;;;;9.77;4.55;;;22.90;99.90;;;;;;5022501;28;20077;-74
2022/09/07 11:08:34;;;;;;;6.50;3.85;;;22.90;99.90;;;;;;5004826;28;20124;-74
2022/09/07 11:11:26;;;;;;;12.43;4.05;;;23.00;99.90;;;;;;5022238;28;20038;-76
2022/09/07 11:13:56;;;;;;;6.10;3.67;;;23.20;99.90;;;;;;4997701;28;20030;-77
2022/09/07 11:16:32;;;;;;;9.45;4.88;;;23.50;99.90;;;;;;5005084;28;20129;-75
2022/09/07 11:19:12;;;;;;;9.85;4.07;;;23.70;99.90;;;;;;5022106;28;20041;-73
2022/09/07 11:21:44;;;;;;;10.73;3.75;;;23.60;99.90;;;;;;5022002;28;20026;-76
2022/09/07 11:24:20;;;;;;;28.35;6.55;;;23.90;99.90;;;;;;5022071;28;20018;-78
2022/09/07 11:26:55;;;;;;;8.02;4.88;;;24.20;99.90;;;;;;5021319;28;20072;-76
2022/09/07 11:29:23;;;;;;;8.32;4.53;;;24.50;99.90;;;;;;5004454;28;20053;-75
2022/09/07 11:31:57;;;;;;;10.50;5.00;;;24.60;99.90;;;;;;5022597;28;20065;-76
2022/09/07 11:34:30;;;;;;;5.80;4.15;;;24.50;99.90;;;;;;5021445;28;20018;-73
2022/09/07 11:37:09;;;;;;;8.48;4.53;;;24.60;99.90;;;;;;5021879;28;20030;-70
2022/09/07 11:39:45;;;;;;;8.68;4.82;;;24.80;99.90;;;;;;5004765;28;20034;-74
2022/09/07 11:42:21;;;;;;;9.45;4.40;;;25.00;99.90;;;;;;5021449;28;20033;-75
2022/09/07 11:44:59;;;;;;;8.65;4.57;;;25.20;99.90;;;;;;5019478;28;20037;-78
2022/09/07 11:47:41;;;;;;;7.93;4.63;;;25.50;99.90;;;;;;5019261;28;20025;-78
2022/09/07 11:50:28;;;;;;;11.02;4.82;;;25.50;99.90;;;;;;5020474;28;20089;-78
2022/09/07 11:53:19;;;;;;;10.32;4.47;;;25.60;99.90;;;;;;5016571;28;20564;-77
2022/09/07 11:55:49;;;;;;;9.80;4.20;;;25.70;99.90;;;;;;5020779;28;20097;-74
2022/09/07 11:58:52;;;;;;;10.25;4.70;;;25.80;99.90;;;;;;5004283;28;20025;-76
2022/09/07 12:01:54;;;;;;;6.65;3.67;;;25.90;99.90;;;;;;5017777;28;20030;-75
2022/09/07 12:04:52;;;;;;;6.45;4.28;;;25.90;99.90;;;;;;5017883;28;20030;-74
2022/09/07 12:07:45;;;;;;;10.35;4.20;;;25.80;99.90;;;;;;5017314;28;20042;-74
2022/09/07 12:10:29;;;;;;;9.23;4.15;;;25.60;99.90;;;;;;5021914;28;20022;-80
2022/09/07 12:13:30;;;;;;;8.30;4.47;;;25.50;99.90;;;;;;5022115;28;20092;-76
2022/09/07 12:16:30;;;;;;;7.80;3.50;;;25.20;99.90;;;;;;5020545;28;20033;-77
2022/09/07 12:19:31;;;;;;;6.88;3.78;;;25.00;99.90;;;;;;5019043;28;20030;-72
2022/09/07 12:22:01;;;;;;;9.82;3.70;;;24.80;99.90;;;;;;4946702;28;20039;-73
2022/09/07 12:24:52;;;;;;;4.72;3.38;;;24.70;99.90;;;;;;4989197;28;20045;-73
2022/09/07 12:27:20;;;;;;;6.93;3.80;;;24.70;99.90;;;;;;5021046;28;20100;-71
2022/09/07 12:29:47;;;;;;;5.38;2.90;;;24.70;99.90;;;;;;5019154;28;20086;-73
2022/09/07 12:32:52;;;;;;;4.13;2.72;;;24.70;99.90;;;;;;5016868;28;20049;-75
2022/09/07 12:35:27;;;;;;;;;;;24.70;99.90;;;;;;5022066;28;20014;-74
2022/09/07 12:38:17;;;;;;;1.92;1.40;;;24.60;99.90;;;;;;5021093;28;19931;-75
2022/09/07 12:41:06;;;;;;;3.00;1.88;;;24.60;99.90;;;;;;5021126;28;20077;-73
2022/09/07 12:43:44;;;;;;;1.77;1.40;;;24.70;99.90;;;;;;5020356;28;20026;-77
2022/09/07 12:46:38;;;;;;;1.73;1.05;;;24.90;99.90;;;;;;5020478;28;20026;-74
2022/09/07 12:49:12;;;;;;;2.30;1.52;;;25.10;99.90;;;;;;5012741;28;20030;-74
2022/09/07 12:51:39;;;;;;;2.45;1.40;;;25.20;99.90;;;;;;5019280;28;20033;-74
2022/09/07 12:54:29;;;;;;;1.45;1.17;;;25.20;99.90;;;;;;5020292;28;20092;-75
2022/09/07 12:57:02;;;;;;;1.85;1.17;;;25.30;99.90;;;;;;5022640;28;20120;-76
2022/09/07 12:59:33;;;;;;;3.30;1.17;;;25.20;99.90;;;;;;5008641;28;20060;-70
2022/09/07 13:02:06;;;;;;;2.08;1.00;;;25.10;99.90;;;;;;5009591;28;20125;-73
2022/09/07 13:04:47;;;;;;;4.65;1.67;;;25.10;99.90;;;;;;5027486;28;20030;-74
2022/09/07 13:07:34;;;;;;;2.65;1.73;;;25.00;99.90;;;;;;5027921;28;20085;-70
2022/09/07 13:10:25;;;;;;;2.20;1.25;;;24.90;99.90;;;;;;5028040;28;20558;-72
2022/09/07 13:12:51;;;;;;;2.35;1.40;;;24.80;99.90;;;;;;5023133;28;20363;-72